createdAt,value
2017-04-08T00:00:23.254Z,94.03
2017-04-08T00:01:35.800Z,93.84
2017-04-08T00:02:48.328Z,93.94
2017-04-08T00:04:00.850Z,93.84
2017-04-08T00:05:13.347Z,94.22
2017-04-08T00:06:25.888Z,94.51
2017-04-08T00:07:38.413Z,94.42
2017-04-08T00:08:50.355Z,94.13
2017-04-08T00:10:02.902Z,94.32
2017-04-08T00:11:15.146Z,94.22
2017-04-08T00:12:27.702Z,94.32
2017-04-08T00:13:40.268Z,94.22
2017-04-08T00:14:52.510Z,94.22
2017-04-08T00:16:05.059Z,94.32
2017-04-08T00:17:17.605Z,94.42
2017-04-08T00:18:30.383Z,94.32
2017-04-08T00:19:42.914Z,94.03
2017-04-08T00:20:55.121Z,94.42
2017-04-08T00:22:07.681Z,94.7
2017-04-08T00:23:20.209Z,94.79
2017-04-08T00:24:32.433Z,94.22
2017-04-08T00:25:44.969Z,94.79
2017-04-08T00:26:57.472Z,94.51
2017-04-08T00:28:10.021Z,94.22
2017-04-08T00:29:22.539Z,94.22
2017-04-08T00:30:34.760Z,94.13
2017-04-08T00:31:47.303Z,94.51
2017-04-08T00:32:59.852Z,95.08
2017-04-08T00:34:11.770Z,94.6
2017-04-08T00:35:24.324Z,94.6
2017-04-08T00:36:36.821Z,94.6
2017-04-08T00:37:49.329Z,94.79
2017-04-08T00:39:01.835Z,94.42
2017-04-08T00:40:14.680Z,94.42
2017-04-08T00:41:26.895Z,94.7
2017-04-08T00:42:39.447Z,94.79
2017-04-08T00:43:51.975Z,94.6
2017-04-08T00:45:04.503Z,94.6
2017-04-08T00:46:17.036Z,94.51
2017-04-08T00:47:29.581Z,94.51
2017-04-08T00:48:42.125Z,94.32
2017-04-08T00:49:54.666Z,94.7
2017-04-08T00:51:07.218Z,94.42
2017-04-08T00:52:19.770Z,94.7
2017-04-08T00:53:32.312Z,94.7
2017-04-08T00:54:44.845Z,94.42
2017-04-08T00:55:57.350Z,94.6
2017-04-08T00:57:09.873Z,94.42
2017-04-08T00:58:22.412Z,94.79
2017-04-08T00:59:34.961Z,94.32
2017-04-08T01:00:47.486Z,94.79
2017-04-08T01:02:00.332Z,94.7
2017-04-08T01:03:12.570Z,94.79
2017-04-08T01:04:24.814Z,94.7
2017-04-08T01:05:37.319Z,94.51
2017-04-08T01:06:49.865Z,94.79
2017-04-08T01:08:02.701Z,94.51
2017-04-08T01:09:15.229Z,94.51
2017-04-08T01:10:27.758Z,94.42
2017-04-08T01:11:39.992Z,94.7
2017-04-08T01:12:52.512Z,94.7
2017-04-08T01:14:05.091Z,94.6
2017-04-08T01:15:17.626Z,94.7
2017-04-08T01:16:30.183Z,94.51
2017-04-08T01:17:42.696Z,94.42
2017-04-08T01:18:55.212Z,94.7
2017-04-08T01:20:07.459Z,94.6
2017-04-08T01:21:19.992Z,94.6
2017-04-08T01:22:32.537Z,94.42
2017-04-08T01:23:45.375Z,94.7
2017-04-08T01:24:57.604Z,94.7
2017-04-08T01:26:09.821Z,94.6
2017-04-08T01:27:22.338Z,94.51
2017-04-08T01:28:34.867Z,94.32
2017-04-08T01:29:47.112Z,94.6
2017-04-08T01:30:59.655Z,94.32
2017-04-08T01:32:11.901Z,94.42
2017-04-08T01:33:24.440Z,94.79
2017-04-08T01:34:36.918Z,94.6
2017-04-08T01:35:49.439Z,94.42
2017-04-08T01:37:01.963Z,94.7
2017-04-08T01:38:14.534Z,94.42
2017-04-08T01:39:27.101Z,94.42
2017-04-08T01:40:39.623Z,94.46
2017-04-08T01:41:52.194Z,94.46
2017-04-08T01:43:04.744Z,94.46
2017-04-08T01:44:17.239Z,94.56
2017-04-08T01:45:29.477Z,94.56
2017-04-08T01:46:41.986Z,94.56
2017-04-08T01:47:54.223Z,95.12
2017-04-08T01:49:06.446Z,94.84
2017-04-08T01:50:18.969Z,94.84
2017-04-08T01:51:31.807Z,94.65
2017-04-08T01:52:44.354Z,94.37
2017-04-08T01:53:56.906Z,94.84
2017-04-08T01:55:08.830Z,95.03
2017-04-08T01:56:21.090Z,94.56
2017-04-08T01:57:33.649Z,94.56
2017-04-08T01:58:45.879Z,95.12
2017-04-08T01:59:58.363Z,94.93
2017-04-08T02:01:10.874Z,94.84
2017-04-08T02:02:23.717Z,94.56
2017-04-08T02:03:35.973Z,94.93
2017-04-08T02:04:48.516Z,94.84
2017-04-08T02:06:01.065Z,94.84
2017-04-08T02:07:13.304Z,95.12
2017-04-08T02:08:25.850Z,94.56
2017-04-08T02:09:38.420Z,94.84
2017-04-08T02:10:50.930Z,94.93
2017-04-08T02:12:03.466Z,94.93
2017-04-08T02:13:15.987Z,95.03
2017-04-08T02:14:28.526Z,94.93
2017-04-08T02:15:41.046Z,94.93
2017-04-08T02:16:53.556Z,94.93
2017-04-08T02:18:06.363Z,94.74
2017-04-08T02:19:18.863Z,94.84
2017-04-08T02:20:31.406Z,95.03
2017-04-08T02:21:43.934Z,94.93
2017-04-08T02:22:56.482Z,94.93
2017-04-08T02:24:09.021Z,94.93
2017-04-08T02:25:21.542Z,94.84
2017-04-08T02:26:34.085Z,94.84
2017-04-08T02:27:46.592Z,95.12
2017-04-08T02:28:59.431Z,95.12
2017-04-08T02:30:11.979Z,95.22
2017-04-08T02:31:24.243Z,95.03
2017-04-08T02:32:36.767Z,94.93
2017-04-08T02:33:49.325Z,94.93
2017-04-08T02:35:01.838Z,95.12
2017-04-08T02:36:14.365Z,95.03
2017-04-08T02:37:26.880Z,95.03
2017-04-08T02:38:39.418Z,94.65
2017-04-08T02:39:51.943Z,95.03
2017-04-08T02:41:04.475Z,95.03
2017-04-08T02:42:16.710Z,94.84
2017-04-08T02:43:29.252Z,95.12
2017-04-08T02:44:41.781Z,95.12
2017-04-08T02:45:54.319Z,94.93
2017-04-08T02:47:06.877Z,95.7
2017-04-08T02:48:19.396Z,95.41
2017-04-08T02:49:31.913Z,95.32
2017-04-08T02:50:44.685Z,95.32
2017-04-08T02:51:57.181Z,95.32
2017-04-08T02:53:09.719Z,95.12
2017-04-08T02:54:22.200Z,95.7
2017-04-08T02:55:34.740Z,95.51
2017-04-08T02:56:47.249Z,95.7
2017-04-08T02:57:59.778Z,95.89
2017-04-08T02:59:12.003Z,95.22
2017-04-08T03:00:24.581Z,95.12
2017-04-08T03:01:37.409Z,95.12
2017-04-08T03:02:49.964Z,95.12
2017-04-08T03:04:02.487Z,95.12
2017-04-08T03:05:14.715Z,95.41
2017-04-08T03:06:27.261Z,95.41
2017-04-08T03:07:39.759Z,94.89
2017-04-08T03:08:52.274Z,95.46
2017-04-08T03:10:04.766Z,95.84
2017-04-08T03:11:16.720Z,95.56
2017-04-08T03:12:29.241Z,95.56
2017-04-08T03:13:41.763Z,95.56
2017-04-08T03:14:54.282Z,95.65
2017-04-08T03:16:06.800Z,95.46
2017-04-08T03:17:19.320Z,95.46
2017-04-08T03:18:31.859Z,95.08
2017-04-08T03:19:44.415Z,95.36
2017-04-08T03:20:56.978Z,96.03
2017-04-08T03:22:09.525Z,95.84
2017-04-08T03:23:22.327Z,95.65
2017-04-08T03:24:34.873Z,95.84
2017-04-08T03:25:47.384Z,95.75
2017-04-08T03:26:59.905Z,95.84
2017-04-08T03:28:12.158Z,96.12
2017-04-08T03:29:24.696Z,95.94
2017-04-08T03:30:37.207Z,95.27
2017-04-08T03:31:49.746Z,95.08
2017-04-08T03:33:02.292Z,95.27
2017-04-08T03:34:14.805Z,95.36
2017-04-08T03:35:27.312Z,95.08
2017-04-08T03:36:39.829Z,95.27
2017-04-08T03:37:52.328Z,95.94
2017-04-08T03:39:04.856Z,96.12
2017-04-08T03:40:17.388Z,95.84
2017-04-08T03:41:29.605Z,95.84
2017-04-08T03:42:42.105Z,95.65
2017-04-08T03:43:54.688Z,95.46
2017-04-08T03:45:07.202Z,95.94
2017-04-08T03:46:19.726Z,96.03
2017-04-08T03:47:31.973Z,96.03
2017-04-08T03:48:44.489Z,95.94
2017-04-08T03:49:57.038Z,95.94
2017-04-08T03:51:09.881Z,95.94
2017-04-08T03:52:22.433Z,95.75
2017-04-08T03:53:34.976Z,96.22
2017-04-08T03:54:47.523Z,96.03
2017-04-08T03:56:00.089Z,96.31
2017-04-08T03:57:12.610Z,96.12
2017-04-08T03:58:25.182Z,96.12
2017-04-08T03:59:37.706Z,96.03
2017-04-08T04:00:50.245Z,96.12
2017-04-08T04:02:02.796Z,96.03
2017-04-08T04:03:15.042Z,96.03
2017-04-08T04:04:27.579Z,96.12
2017-04-08T04:05:39.831Z,96.12
2017-04-08T04:06:52.627Z,96.22
2017-04-08T04:08:05.151Z,96.12
2017-04-08T04:09:17.095Z,95.94
2017-04-08T04:10:29.640Z,95.94
2017-04-08T04:11:41.879Z,96.22
2017-04-08T04:12:54.399Z,95.94
2017-04-08T04:14:06.899Z,96.03
2017-04-08T04:15:19.424Z,95.94
2017-04-08T04:16:31.963Z,96.31
2017-04-08T04:17:44.736Z,96.22
2017-04-08T04:18:57.259Z,96.03
2017-04-08T04:20:09.811Z,96.41
2017-04-08T04:21:22.053Z,96.22
2017-04-08T04:22:34.603Z,96.03
2017-04-08T04:23:46.829Z,96.22
2017-04-08T04:24:59.072Z,96.03
2017-04-08T04:26:11.615Z,96.03
2017-04-08T04:27:24.160Z,96.03
2017-04-08T04:28:36.379Z,96.12
2017-04-08T04:29:48.960Z,96.03
2017-04-08T04:31:01.163Z,96.03
2017-04-08T04:32:13.687Z,95.65
2017-04-08T04:33:26.233Z,96.12
2017-04-08T04:34:39.051Z,96.41
2017-04-08T04:35:51.608Z,96.12
2017-04-08T04:37:04.150Z,96.12
2017-04-08T04:38:16.396Z,96.12
2017-04-08T04:39:28.912Z,95.65
2017-04-08T04:40:41.458Z,96.12
2017-04-08T04:41:53.977Z,96.12
2017-04-08T04:43:06.513Z,95.65
2017-04-08T04:44:19.045Z,95.65
2017-04-08T04:45:31.821Z,95.94
2017-04-08T04:46:44.347Z,95.65
2017-04-08T04:47:56.884Z,95.56
2017-04-08T04:49:09.406Z,95.84
2017-04-08T04:50:21.951Z,95.65
2017-04-08T04:51:34.480Z,95.84
2017-04-08T04:52:46.727Z,95.84
2017-04-08T04:53:59.267Z,95.94
2017-04-08T04:55:11.773Z,95.94
2017-04-08T04:56:24.259Z,95.84
2017-04-08T04:57:36.777Z,95.75
2017-04-08T04:58:49.306Z,95.94
2017-04-08T05:00:01.864Z,95.94
2017-04-08T05:01:14.397Z,95.65
2017-04-08T05:02:26.956Z,95.56
2017-04-08T05:03:39.485Z,95.56
2017-04-08T05:04:52.031Z,96.03
2017-04-08T05:06:04.558Z,95.65
2017-04-08T05:07:16.794Z,95.84
2017-04-08T05:08:29.044Z,95.84
2017-04-08T05:09:40.960Z,95.75
2017-04-08T05:10:53.538Z,95.84
2017-04-08T05:12:06.327Z,95.75
2017-04-08T05:13:18.872Z,95.75
2017-04-08T05:14:31.423Z,95.75
2017-04-08T05:15:43.669Z,95.84
2017-04-08T05:16:55.932Z,95.84
2017-04-08T05:18:08.463Z,95.84
2017-04-08T05:19:21.002Z,95.75
2017-04-08T05:20:33.248Z,95.94
2017-04-08T05:21:45.803Z,95.94
2017-04-08T05:22:58.640Z,95.98
2017-04-08T05:24:11.193Z,95.36
2017-04-08T05:25:23.756Z,95.98
2017-04-08T05:26:36.010Z,95.27
2017-04-08T05:27:48.525Z,95.32
2017-04-08T05:29:00.771Z,95.6
2017-04-08T05:30:13.324Z,95.51
2017-04-08T05:31:25.893Z,95.7
2017-04-08T05:32:38.439Z,95.12
2017-04-08T05:33:50.974Z,95.41
2017-04-08T05:35:03.200Z,95.32
2017-04-08T05:36:15.723Z,95.32
2017-04-08T05:37:28.270Z,95.32
2017-04-08T05:38:40.794Z,95.03
2017-04-08T05:39:53.329Z,94.74
2017-04-08T05:41:05.849Z,94.84
2017-04-08T05:42:17.785Z,95.51
2017-04-08T05:43:30.325Z,95.41
2017-04-08T05:44:42.821Z,94.84
2017-04-08T05:45:55.341Z,94.93
2017-04-08T05:47:07.840Z,94.84
2017-04-08T05:48:20.386Z,95.03
2017-04-08T05:49:32.913Z,94.84
2017-04-08T05:50:45.452Z,94.56
2017-04-08T05:51:58.000Z,94.56
2017-04-08T05:53:10.519Z,94.74
2017-04-08T05:54:23.080Z,94.74
2017-04-08T05:55:35.613Z,94.56
2017-04-08T05:56:48.149Z,94.27
2017-04-08T05:58:00.692Z,94.37
2017-04-08T05:59:13.226Z,94.46
2017-04-08T06:00:25.760Z,94.51
2017-04-08T06:01:38.280Z,93.84
2017-04-08T06:02:50.505Z,93.94
2017-04-08T06:04:03.042Z,94.22
2017-04-08T06:05:15.268Z,93.94
2017-04-08T06:06:28.093Z,93.55
2017-04-08T06:07:40.639Z,93.74
2017-04-08T06:08:53.167Z,93.46
2017-04-08T06:10:05.710Z,93.94
2017-04-08T06:11:18.259Z,93.37
2017-04-08T06:12:30.797Z,93.37
2017-04-08T06:13:43.078Z,93.65
2017-04-08T06:14:55.589Z,93.74
2017-04-08T06:16:08.113Z,93.18
2017-04-08T06:17:20.626Z,93.18
2017-04-08T06:18:32.560Z,93.27
2017-04-08T06:19:45.144Z,93.37
2017-04-08T06:20:57.390Z,93.55
2017-04-08T06:22:09.922Z,93.37
2017-04-08T06:23:22.167Z,93.18
2017-04-08T06:24:34.714Z,93.55
2017-04-08T06:25:47.255Z,93.27
2017-04-08T06:26:58.873Z,92.99
2017-04-08T06:28:11.452Z,93.08
2017-04-08T06:29:23.985Z,92.6
2017-04-08T06:30:36.207Z,92.6
2017-04-08T06:31:48.727Z,92.79
2017-04-08T06:33:01.253Z,92.65
2017-04-08T06:34:13.795Z,92.74
2017-04-08T06:35:26.316Z,92.65
2017-04-08T06:36:38.837Z,92.18
2017-04-08T06:37:51.343Z,92.18
2017-04-08T06:39:03.586Z,92.08
2017-04-08T06:40:16.108Z,91.89
2017-04-08T06:41:28.323Z,92.08
2017-04-08T06:42:40.849Z,91.51
2017-04-08T06:43:53.398Z,91.31
2017-04-08T06:45:05.632Z,91.51
2017-04-08T06:46:17.882Z,91.41
2017-04-08T06:47:30.102Z,91.22
2017-04-08T06:48:42.654Z,91.51
2017-04-08T06:49:55.184Z,91.6
2017-04-08T06:51:07.713Z,91.13
2017-04-08T06:52:20.244Z,91.51
2017-04-08T06:53:32.462Z,91.51
2017-04-08T06:54:44.979Z,91.31
2017-04-08T06:55:57.229Z,91.03
2017-04-08T06:57:09.768Z,90.94
2017-04-08T06:58:21.967Z,91.51
2017-04-08T06:59:34.522Z,91.22
2017-04-08T07:00:47.055Z,90.94
2017-04-08T07:01:59.609Z,90.94
2017-04-08T07:03:12.154Z,90.75
2017-04-08T07:04:24.696Z,91.03
2017-04-08T07:05:37.221Z,90.75
2017-04-08T07:06:49.744Z,90.94
2017-04-08T07:08:02.263Z,90.84
2017-04-08T07:09:14.505Z,90.84
2017-04-08T07:10:27.059Z,90.84
2017-04-08T07:11:39.856Z,90.84
2017-04-08T07:12:52.399Z,91.03
2017-04-08T07:14:04.909Z,90.6
2017-04-08T07:15:17.417Z,90.5
2017-04-08T07:16:29.977Z,90.5
2017-04-08T07:17:42.480Z,90.7
2017-04-08T07:18:54.702Z,90.98
2017-04-08T07:20:07.240Z,90.6
2017-04-08T07:21:19.786Z,90.5
2017-04-08T07:22:32.335Z,90.6
2017-04-08T07:23:44.885Z,90.31
2017-04-08T07:24:57.435Z,90.31
2017-04-08T07:26:09.969Z,89.94
2017-04-08T07:27:22.530Z,90.41
2017-04-08T07:28:35.050Z,90.12
2017-04-08T07:29:47.589Z,90.12
2017-04-08T07:31:00.115Z,90.03
2017-04-08T07:32:12.652Z,89.84
2017-04-08T07:33:25.183Z,90.12
2017-04-08T07:34:37.690Z,90.22
2017-04-08T07:35:50.215Z,89.94
2017-04-08T07:37:02.793Z,89.94
2017-04-08T07:38:15.035Z,89.69
2017-04-08T07:39:27.549Z,89.22
2017-04-08T07:40:39.774Z,89.22
2017-04-08T07:41:52.299Z,89.12
2017-04-08T07:43:04.823Z,88.64
2017-04-08T07:44:17.058Z,88.74
2017-04-08T07:45:29.587Z,88.64
2017-04-08T07:46:42.114Z,88.55
2017-04-08T07:47:54.649Z,88.55
2017-04-08T07:49:07.195Z,88.59
2017-04-08T07:50:19.738Z,88.31
2017-04-08T07:51:32.266Z,88.12
2017-04-08T07:52:44.807Z,88.12
2017-04-08T07:53:57.365Z,87.93
2017-04-08T07:55:09.932Z,87.74
2017-04-08T07:56:22.478Z,87.83
2017-04-08T07:57:34.721Z,87.35
2017-04-08T07:58:47.263Z,87.16
2017-04-08T07:59:59.834Z,87.26
2017-04-08T08:01:12.060Z,86.78
2017-04-08T08:02:24.579Z,86.98
2017-04-08T08:03:36.797Z,87.16
2017-04-08T08:04:49.325Z,86.49
2017-04-08T08:06:01.870Z,87.07
2017-04-08T08:07:14.415Z,86.49
2017-04-08T08:08:26.650Z,86.69
2017-04-08T08:09:38.883Z,87.16
2017-04-08T08:10:51.422Z,86.4
2017-04-08T08:12:03.975Z,86.59
2017-04-08T08:13:16.484Z,86.59
2017-04-08T08:14:28.718Z,86.59
2017-04-08T08:15:40.977Z,86.4
2017-04-08T08:16:53.529Z,86.21
2017-04-08T08:18:06.076Z,86.4
2017-04-08T08:19:18.624Z,86.16
2017-04-08T08:20:30.868Z,86.35
2017-04-08T08:21:43.413Z,86.54
2017-04-08T08:22:55.935Z,86.25
2017-04-08T08:24:08.485Z,86.06
2017-04-08T08:25:21.022Z,85.87
2017-04-08T08:26:33.578Z,86.16
2017-04-08T08:27:46.114Z,86.06
2017-04-08T08:28:58.371Z,85.87
2017-04-08T08:30:10.939Z,85.97
2017-04-08T08:31:23.489Z,85.49
2017-04-08T08:32:36.020Z,85.3
2017-04-08T08:33:48.540Z,85.3
2017-04-08T08:35:01.069Z,85.3
2017-04-08T08:36:13.313Z,85.21
2017-04-08T08:37:25.910Z,85.05
2017-04-08T08:38:38.735Z,84.77
2017-04-08T08:39:51.281Z,85.05
2017-04-08T08:41:03.841Z,84.86
2017-04-08T08:42:16.365Z,84.77
2017-04-08T08:43:28.931Z,84.67
2017-04-08T08:44:41.712Z,84
2017-04-08T08:45:53.935Z,83.91
2017-04-08T08:47:06.173Z,83.43
2017-04-08T08:48:18.442Z,83.24
2017-04-08T08:49:30.997Z,83.62
2017-04-08T08:50:43.232Z,84.43
2017-04-08T08:51:55.768Z,83.47
2017-04-08T08:53:08.336Z,83.67
2017-04-08T08:54:20.902Z,83.47
2017-04-08T08:55:33.417Z,83.47
2017-04-08T08:56:45.965Z,83.28
2017-04-08T08:57:58.512Z,83.47
2017-04-08T08:59:10.737Z,82.94
2017-04-08T09:00:23.575Z,83.33
2017-04-08T09:01:36.080Z,83.13
2017-04-08T09:02:48.600Z,82.46
2017-04-08T09:04:01.138Z,82.18
2017-04-08T09:05:13.663Z,82.18
2017-04-08T09:06:26.207Z,81.55
2017-04-08T09:07:38.761Z,81.45
2017-04-08T09:08:51.304Z,81.55
2017-04-08T09:10:03.852Z,81.55
2017-04-08T09:11:16.124Z,81.45
2017-04-08T09:12:28.670Z,81.26
2017-04-08T09:13:40.580Z,81.26
2017-04-08T09:14:53.113Z,81.45
2017-04-08T09:16:05.651Z,81.36
2017-04-08T09:17:18.196Z,81.36
2017-04-08T09:18:30.739Z,81.16
2017-04-08T09:19:43.263Z,80.88
2017-04-08T09:20:55.796Z,80.88
2017-04-08T09:22:08.363Z,81.07
2017-04-08T09:23:20.930Z,81.07
2017-04-08T09:24:33.172Z,81.07
2017-04-08T09:25:45.666Z,81.07
2017-04-08T09:26:58.164Z,80.69
2017-04-08T09:28:10.709Z,80.98
2017-04-08T09:29:23.238Z,80.5
2017-04-08T09:30:35.834Z,80.59
2017-04-08T09:31:48.069Z,81.07
2017-04-08T09:33:00.622Z,81.26
2017-04-08T09:34:13.163Z,81.55
2017-04-08T09:35:25.667Z,81.55
2017-04-08T09:36:38.214Z,81.36
2017-04-08T09:37:50.761Z,81.45
2017-04-08T09:39:03.305Z,81.45
2017-04-08T09:40:15.548Z,80.98
2017-04-08T09:41:28.069Z,81.36
2017-04-08T09:42:40.592Z,80.98
2017-04-08T09:43:53.104Z,81.36
2017-04-08T09:45:05.336Z,80.88
2017-04-08T09:46:17.895Z,80.79
2017-04-08T09:47:30.143Z,81.26
2017-04-08T09:48:42.719Z,81.16
2017-04-08T09:49:55.293Z,80.98
2017-04-08T09:51:07.840Z,81.16
2017-04-08T09:52:20.385Z,81.26
2017-04-08T09:53:32.955Z,81.16
2017-04-08T09:54:45.490Z,81.49
2017-04-08T09:55:58.012Z,81.21
2017-04-08T09:57:10.533Z,80.82
2017-04-08T09:58:23.062Z,80.44
2017-04-08T09:59:35.636Z,79.96
2017-04-08T10:00:48.147Z,80.44
2017-04-08T10:02:00.702Z,79.68
2017-04-08T10:03:13.273Z,79.81
2017-04-08T10:04:25.834Z,79.24
2017-04-08T10:05:38.361Z,79.52
2017-04-08T10:06:50.887Z,79.24
2017-04-08T10:08:03.431Z,79.05
2017-04-08T10:09:15.966Z,79.57
2017-04-08T10:10:28.463Z,79.57
2017-04-08T10:11:40.991Z,79.28
2017-04-08T10:12:53.529Z,79.18
2017-04-08T10:14:06.076Z,78.99
2017-04-08T10:15:18.303Z,79.18
2017-04-08T10:16:30.852Z,79.08
2017-04-08T10:17:43.098Z,78.84
2017-04-08T10:18:55.637Z,78.17
2017-04-08T10:20:08.211Z,77.88
2017-04-08T10:21:20.758Z,77.97
2017-04-08T10:22:32.979Z,78.13
2017-04-08T10:23:45.222Z,77.59
2017-04-08T10:24:57.789Z,77.36
2017-04-08T10:26:10.309Z,76.98
2017-04-08T10:27:22.841Z,77.69
2017-04-08T10:28:35.106Z,77.75
2017-04-08T10:29:47.656Z,77.94
2017-04-08T10:31:00.200Z,77.31
2017-04-08T10:32:12.724Z,77.46
2017-04-08T10:33:25.242Z,78.13
2017-04-08T10:34:37.784Z,77.94
2017-04-08T10:35:50.309Z,77.94
2017-04-08T10:37:02.847Z,78.03
2017-04-08T10:38:15.326Z,78.13
2017-04-08T10:39:27.576Z,78.42
2017-04-08T10:40:40.139Z,78.03
2017-04-08T10:41:52.667Z,78.32
2017-04-08T10:43:05.206Z,78.22
2017-04-08T10:44:17.465Z,78.64
2017-04-08T10:45:30.002Z,78.64
2017-04-08T10:46:42.576Z,78.55
2017-04-08T10:47:55.149Z,77.69
2017-04-08T10:49:07.708Z,76.44
2017-04-08T10:50:20.236Z,76.64
2017-04-08T10:51:32.456Z,76.39
2017-04-08T10:52:44.999Z,76
2017-04-08T10:53:57.526Z,75.14
2017-04-08T10:55:10.047Z,75.33
2017-04-08T10:56:22.565Z,75.62
2017-04-08T10:57:35.106Z,74.85
2017-04-08T10:58:47.661Z,75.43
2017-04-08T11:00:00.173Z,74.85
2017-04-08T11:01:12.741Z,75.14
2017-04-08T11:02:25.248Z,73.83
2017-04-08T11:03:37.758Z,71.09
2017-04-08T11:04:50.286Z,70.13
2017-04-08T11:06:02.832Z,70.36
2017-04-08T11:07:15.383Z,69.01
2017-04-08T11:08:27.941Z,67.13
2017-04-08T11:09:40.491Z,64.76
2017-04-08T11:10:53.041Z,63.92
2017-04-08T11:12:05.607Z,62.19
2017-04-08T11:13:17.882Z,62.03
2017-04-08T11:14:30.445Z,61
2017-04-08T11:15:42.992Z,59.85
2017-04-08T11:16:55.220Z,58.82
2017-04-08T11:18:07.459Z,58.17
2017-04-08T11:19:20.012Z,57.69
2017-04-08T11:20:32.553Z,57.79
2017-04-08T11:21:45.354Z,57.69
2017-04-08T11:22:57.921Z,57.79
2017-04-08T11:24:10.500Z,57.47
2017-04-08T11:25:23.077Z,57.76
2017-04-08T11:26:35.334Z,58.24
2017-04-08T11:27:47.879Z,59.01
2017-04-08T11:29:00.108Z,59.01
2017-04-08T11:30:12.667Z,59.27
2017-04-08T11:31:25.214Z,59.37
2017-04-08T11:32:37.719Z,58.5
2017-04-08T11:33:49.991Z,58.4
2017-04-08T11:35:02.554Z,57.35
2017-04-08T11:36:14.781Z,57.64
2017-04-08T11:37:27.293Z,57.37
2017-04-08T11:38:39.546Z,56.9
2017-04-08T11:39:52.110Z,56.9
2017-04-08T11:41:04.340Z,57.37
2017-04-08T11:42:16.856Z,57.57
2017-04-08T11:43:29.114Z,57.15
2017-04-08T11:44:41.676Z,58.22
2017-04-08T11:45:54.244Z,58.79
2017-04-08T11:47:06.794Z,59.05
2017-04-08T11:48:19.341Z,59.44
2017-04-08T11:49:31.864Z,59.72
2017-04-08T11:50:44.406Z,59.89
2017-04-08T11:51:56.948Z,60.17
2017-04-08T11:53:09.499Z,60.75
2017-04-08T11:54:22.046Z,61.49
2017-04-08T11:55:34.593Z,62.16
2017-04-08T11:56:46.861Z,62.13
2017-04-08T11:57:59.409Z,62.9
2017-04-08T11:59:11.955Z,63.09
2017-04-08T12:00:24.523Z,63.28
2017-04-08T12:01:37.062Z,63.76
2017-04-08T12:02:49.596Z,64.05
2017-04-08T12:04:02.131Z,64.72
2017-04-08T12:05:14.978Z,63.86
2017-04-08T12:06:27.221Z,63.19
2017-04-08T12:07:39.467Z,63.67
2017-04-08T12:08:51.998Z,63.48
2017-04-08T12:10:04.544Z,62.99
2017-04-08T12:11:16.811Z,62.99
2017-04-08T12:12:29.053Z,62.99
2017-04-08T12:13:41.603Z,63.48
2017-04-08T12:14:54.149Z,64.15
2017-04-08T12:16:06.675Z,65.11
2017-04-08T12:17:18.611Z,64.31
2017-04-08T12:18:31.166Z,64.12
2017-04-08T12:19:43.726Z,64.22
2017-04-08T12:20:56.250Z,64.22
2017-04-08T12:22:08.795Z,65.27
2017-04-08T12:23:21.338Z,65.08
2017-04-08T12:24:33.862Z,65.33
2017-04-08T12:25:46.138Z,66.19
2017-04-08T12:26:57.833Z,66.77
2017-04-08T12:28:10.379Z,66.86
2017-04-08T12:29:22.925Z,67.06
2017-04-08T12:30:35.468Z,67.44
2017-04-08T12:31:48.035Z,67.32
2017-04-08T12:33:00.566Z,67.99
2017-04-08T12:34:13.093Z,68.27
2017-04-08T12:35:25.335Z,68.08
2017-04-08T12:36:37.897Z,68.08
2017-04-08T12:37:50.443Z,68.75
2017-04-08T12:39:02.694Z,68.56
2017-04-08T12:40:15.259Z,68.08
2017-04-08T12:41:27.485Z,67.89
2017-04-08T12:42:40.030Z,67.92
2017-04-08T12:43:52.572Z,68.12
2017-04-08T12:45:05.129Z,67.73
2017-04-08T12:46:17.068Z,66.1
2017-04-08T12:47:29.632Z,65.91
2017-04-08T12:48:42.131Z,65.81
2017-04-08T12:49:54.381Z,65.81
2017-04-08T12:51:06.902Z,66.29
2017-04-08T12:52:19.423Z,66.39
2017-04-08T12:53:31.964Z,66.23
2017-04-08T12:54:44.518Z,65.81
2017-04-08T12:55:56.745Z,65.75
2017-04-08T12:57:09.260Z,64.4
2017-04-08T12:58:21.777Z,64.22
2017-04-08T12:59:34.299Z,64.02
2017-04-08T13:00:46.520Z,64.12
2017-04-08T13:01:59.068Z,64.02
2017-04-08T13:03:11.616Z,64.09
2017-04-08T13:04:24.150Z,65.46
2017-04-08T13:05:36.371Z,64.69
2017-04-08T13:06:48.279Z,64.56
2017-04-08T13:08:00.820Z,64.37
2017-04-08T13:09:13.058Z,64.18
2017-04-08T13:10:25.630Z,65.52
2017-04-08T13:11:38.175Z,65.72
2017-04-08T13:12:50.701Z,66
2017-04-08T13:14:03.278Z,66.67
2017-04-08T13:15:15.222Z,65.62
2017-04-08T13:16:27.762Z,64.47
2017-04-08T13:17:40.310Z,64.95
2017-04-08T13:18:52.868Z,64.95
2017-04-08T13:20:05.410Z,65.62
2017-04-08T13:21:18.296Z,65.05
2017-04-08T13:22:30.827Z,64.85
2017-04-08T13:23:43.409Z,65.81
2017-04-08T13:24:55.966Z,65.43
2017-04-08T13:26:08.501Z,65.52
2017-04-08T13:27:21.047Z,65.33
2017-04-08T13:28:33.593Z,65.43
2017-04-08T13:29:46.147Z,65.14
2017-04-08T13:30:58.696Z,64.66
2017-04-08T13:32:11.264Z,64.66
2017-04-08T13:33:23.784Z,65.33
2017-04-08T13:34:36.305Z,65.43
2017-04-08T13:35:48.870Z,65.52
2017-04-08T13:37:01.399Z,65.91
2017-04-08T13:38:13.918Z,65.91
2017-04-08T13:39:26.467Z,65.05
2017-04-08T13:40:39.013Z,64.47
2017-04-08T13:41:51.252Z,64.66
2017-04-08T13:43:03.745Z,64.69
2017-04-08T13:44:16.279Z,63.99
2017-04-08T13:45:28.822Z,63.99
2017-04-08T13:46:41.381Z,63.92
2017-04-08T13:47:53.906Z,64.12
2017-04-08T13:49:06.457Z,63.92
2017-04-08T13:50:18.727Z,63.99
2017-04-08T13:51:31.303Z,63.92
2017-04-08T13:52:43.847Z,64.18
2017-04-08T13:53:56.415Z,64.28
2017-04-08T13:55:08.957Z,64.37
2017-04-08T13:56:20.881Z,64.85
2017-04-08T13:57:33.398Z,65.33
2017-04-08T13:58:45.952Z,65.52
2017-04-08T13:59:58.191Z,66
2017-04-08T14:01:10.446Z,66.58
2017-04-08T14:02:22.706Z,66.49
2017-04-08T14:03:35.233Z,66
2017-04-08T14:04:48.007Z,65.91
2017-04-08T14:06:00.541Z,66.45
2017-04-08T14:07:13.097Z,66.67
2017-04-08T14:08:25.608Z,66.55
2017-04-08T14:09:38.140Z,67.12
2017-04-08T14:10:50.675Z,66.64
2017-04-08T14:12:03.202Z,66.83
2017-04-08T14:13:15.495Z,66.93
2017-04-08T14:14:28.066Z,67.22
2017-04-08T14:15:40.623Z,67.02
2017-04-08T14:16:53.157Z,67.79
2017-04-08T14:18:05.726Z,68.62
2017-04-08T14:19:18.254Z,68.43
2017-04-08T14:20:30.778Z,68.81
2017-04-08T14:21:43.321Z,69.2
2017-04-08T14:22:55.534Z,69.26
2017-04-08T14:24:07.755Z,70.03
2017-04-08T14:25:20.284Z,70.98
2017-04-08T14:26:32.822Z,70.5
2017-04-08T14:27:45.046Z,71.56
2017-04-08T14:28:57.590Z,71.56
2017-04-08T14:30:10.142Z,71.66
2017-04-08T14:31:22.664Z,72.13
2017-04-08T14:32:35.180Z,72.42
2017-04-08T14:33:47.406Z,72.96
2017-04-08T14:34:59.654Z,73.34
2017-04-08T14:36:12.193Z,73.44
2017-04-08T14:37:25.042Z,73.44
2017-04-08T14:38:37.588Z,73.24
2017-04-08T14:39:49.863Z,73.44
2017-04-08T14:41:02.110Z,74.01
2017-04-08T14:42:14.644Z,74.2
2017-04-08T14:43:27.190Z,74.11
2017-04-08T14:44:39.739Z,74.2
2017-04-08T14:45:52.306Z,74.11
2017-04-08T14:47:04.534Z,74.49
2017-04-08T14:48:17.331Z,74.84
2017-04-08T14:49:29.872Z,75.02
2017-04-08T14:50:42.404Z,75.41
2017-04-08T14:51:54.972Z,75.51
2017-04-08T14:53:07.542Z,75.79
2017-04-08T14:54:20.106Z,75.79
2017-04-08T14:55:32.631Z,76.02
2017-04-08T14:56:44.868Z,76.12
2017-04-08T14:57:57.401Z,75.51
2017-04-08T14:59:09.971Z,75.89
2017-04-08T15:00:22.531Z,75.7
2017-04-08T15:01:35.056Z,75.83
2017-04-08T15:02:47.606Z,75.79
2017-04-08T15:04:00.169Z,75.7
2017-04-08T15:05:12.966Z,75.89
2017-04-08T15:06:25.497Z,75.31
2017-04-08T15:07:38.065Z,75.64
2017-04-08T15:08:50.589Z,75.12
2017-04-08T15:10:03.185Z,75.93
2017-04-08T15:11:15.723Z,75.54
2017-04-08T15:12:28.241Z,76.02
2017-04-08T15:13:40.761Z,75.26
2017-04-08T15:14:53.294Z,74.84
2017-04-08T15:16:05.856Z,74.84
2017-04-08T15:17:18.409Z,74.93
2017-04-08T15:18:30.944Z,75.02
2017-04-08T15:19:43.466Z,75.12
2017-04-08T15:20:55.940Z,74.93
2017-04-08T15:22:08.490Z,75.41
2017-04-08T15:23:21.007Z,75.51
2017-04-08T15:24:33.553Z,75.22
2017-04-08T15:25:46.073Z,75.31
2017-04-08T15:26:58.623Z,75.89
2017-04-08T15:28:11.170Z,75.89
2017-04-08T15:29:23.691Z,76.08
2017-04-08T15:30:36.229Z,76.75
2017-04-08T15:31:48.452Z,76.75
2017-04-08T15:33:00.674Z,76.75
2017-04-08T15:34:13.225Z,76.65
2017-04-08T15:35:25.766Z,76.75
2017-04-08T15:36:37.994Z,75.7